Floweree, MT (59440)

8:23 AM MST on February 14, 2016 (GMT -0700)
Countryside Village | | Change Station
CLOSE
Current Station
Personal Weather Station
Location: Great Falls, MT
Elevation: 3514 ft
Nearby Weather Stations

Elev 3514 ft 47.54 °N, 111.29 °W | Updated 2 seconds ago

Partly Cloudy
Partly Cloudy
37.9 °F
Feels Like 32 °F
N
8.7
Wind Variable Wind from SW
Gusts 15.2 mph

Today
High -- | Low -- °F
--% Chance of Precip.
Yesterday
High -- | Low -- °F
Precip. -- in
Pressure 29.87 in
Visibility 10.0 miles
Clouds Mostly Cloudy 16000 ft
Windchill 32 °F
Dew Point 22 °F
Humidity 53%
Rainfall 0.00 in
Snow Depth Not available.
7:32 AM 5:45 PM
Waxing Crescent, 42% visible
METAR KGFA 141458Z AUTO 24014G20KT 10SM BKN160 04/M05 A2980 RMK AO2 SLP114 T00361049 55004 TSNO $
Pressure 29.87 in
Visibility 10.0 miles
Clouds Mostly Cloudy 16000 ft
Windchill 32 °F
Dew Point 22 °F
Humidity 53%
Rainfall 0.00 in
Snow Depth Not available.
7:32 AM 5:45 PM
Waxing Crescent, 42% visible
METAR KGFA 141458Z AUTO 24014G20KT 10SM BKN160 04/M05 A2980 RMK AO2 SLP114 T00361049 55004 TSNO $

10-Day Weather Forecast

Almanac

Astronomy

Feb. 14, 2016 Rise Set
Actual Time
Civil Twilight
Nautical Twilight
Astronomical Twilight
Moon
Length of Visible Light
Length of Day
Tomorrow will be .
, % of the Moon is Illuminated

Today's Extremes

State Highs State Lows

Community

WunderPhotos

Upload Photos

1,892,791 photos uploaded!

WunderBlog® & News

Nearby

Air Quality

  Air Quality AQ Index Pollutant
Not available.

Snow Depth

Station Depth Elevation

Earthquake Activity

City Distance Mag. Time & Date
Minimum magnitude displayed is 2.5.

Coastal Water Temperatures

Place Temperature

Stations

Nearby Weather Stations

Station Location Temp. Windchill Dew Point Humidity Wind Precip. Elev Updated Type
                   

Watches & Warnings

There are currently no watches in effect.